Time;durP1;ratioP1;P1;durP2;ratioP2;P2;SDS_P1;SDS_P2;PMS_P1;PMS_P2;Temp;Humidity;BMP_temperature;BMP_pressure;BME280_temperature;BME280_humidity;BME280_pressure;Samples;Min_cycle;Max_cycle;Signal;HPM_P1;HPM_P2
2021/12/01 00:02:26;;;;;;;0.60;0.60;;;7.30;1.00;;;;;;4985197;28;20412;-79
2021/12/01 00:04:56;;;;;;;0.40;0.40;;;7.30;1.00;;;;;;4986223;28;20981;-78
2021/12/01 00:07:56;;;;;;;0.40;0.40;;;7.20;1.00;;;;;;4994035;28;20451;-77
2021/12/01 00:10:44;;;;;;;0.47;0.47;;;7.30;1.00;;;;;;4994103;28;20755;-76
2021/12/01 00:13:28;;;;;;;0.40;0.40;;;7.30;1.00;;;;;;4993922;28;20435;-76
2021/12/01 00:15:56;;;;;;;0.50;0.50;;;7.30;1.00;;;;;;4993798;28;20771;-77
2021/12/01 00:18:32;;;;;;;0.50;0.50;;;7.30;1.00;;;;;;4983170;28;20457;-77
2021/12/01 00:21:26;;;;;;;0.40;0.40;;;7.30;1.00;;;;;;4993714;28;20455;-77
2021/12/01 00:23:56;;;;;;;0.53;0.53;;;7.30;1.00;;;;;;4993893;28;20428;-76
2021/12/01 00:26:51;;;;;;;0.50;0.50;;;7.20;1.00;;;;;;4993672;28;20420;-76
2021/12/01 00:29:57;;;;;;;0.80;0.50;;;7.20;1.00;;;;;;4986380;28;20519;-76
2021/12/01 00:32:52;;;;;;;1.00;0.70;;;7.20;1.00;;;;;;4997358;28;20883;-76
2021/12/01 00:35:27;;;;;;;0.90;0.60;;;7.20;1.00;;;;;;4997124;28;20424;-76
2021/12/01 00:38:03;;;;;;;0.70;0.70;;;7.10;1.00;;;;;;4996138;28;20886;-77
2021/12/01 00:40:50;;;;;;;0.83;0.83;;;7.10;1.00;;;;;;4997029;28;20440;-76
2021/12/01 00:43:56;;;;;;;0.60;0.60;;;7.10;1.00;;;;;;4997157;28;20484;-76
2021/12/01 00:46:36;;;;;;;1.10;0.70;;;6.90;1.00;;;;;;4996862;28;20409;-76
2021/12/01 00:49:39;;;;;;;0.67;0.67;;;6.90;1.00;;;;;;4997174;28;20420;-76
2021/12/01 00:52:27;;;;;;;0.87;0.83;;;6.80;1.00;;;;;;4987944;28;20460;-77
2021/12/01 00:54:56;;;;;;;0.90;0.70;;;6.80;1.00;;;;;;4981378;28;20418;-77
2021/12/01 00:57:56;;;;;;;0.70;0.70;;;6.70;1.00;;;;;;4977556;28;20811;-76
2021/12/01 01:00:40;;;;;;;1.23;1.13;;;6.80;1.00;;;;;;4996913;28;20413;-77
2021/12/01 01:03:21;;;;;;;0.83;0.83;;;6.80;1.00;;;;;;4996647;28;20420;-76
2021/12/01 01:06:14;;;;;;;0.90;0.90;;;6.70;1.00;;;;;;4996653;28;20946;-76
2021/12/01 01:09:08;;;;;;;1.07;0.90;;;6.70;1.00;;;;;;4990347;28;20413;-79
2021/12/01 01:18:28;;;;;;;1.77;1.20;;;6.70;1.00;;;;;;4996217;28;20448;-79
2021/12/01 01:21:28;;;;;;;0.80;0.80;;;6.70;1.00;;;;;;4996310;28;20456;-79
2021/12/01 01:23:57;;;;;;;1.80;0.60;;;6.70;1.00;;;;;;4996612;28;20500;-76
2021/12/01 01:26:27;;;;;;;1.43;1.13;;;6.60;1.00;;;;;;4995958;28;20955;-76
2021/12/01 01:29:27;;;;;;;0.70;0.70;;;6.60;1.00;;;;;;4996302;28;20915;-76
2021/12/01 01:31:58;;;;;;;0.73;0.67;;;6.60;1.00;;;;;;4996104;28;20424;-75
2021/12/01 01:34:26;;;;;;;0.70;0.70;;;6.60;1.00;;;;;;4996050;28;21042;-76
2021/12/01 01:36:56;;;;;;;1.33;0.70;;;6.60;1.00;;;;;;4996237;28;20515;-77
2021/12/01 01:39:22;;;;;;;1.13;0.60;;;6.70;1.00;;;;;;4995782;28;20457;-76
2021/12/01 01:41:52;;;;;;;1.90;1.00;;;6.70;1.00;;;;;;4995557;28;20795;-76
2021/12/01 01:44:18;;;;;;;0.90;0.90;;;;;;;;;;4996095;28;20550;-76
2021/12/01 01:47:08;;;;;;;0.43;0.43;;;6.70;1.00;;;;;;4995636;28;20486;-76
2021/12/01 01:52:56;;;;;;;1.43;0.90;;;6.70;1.00;;;;;;4982978;28;20410;-77
2021/12/01 01:59:26;;;;;;;0.50;0.50;;;6.60;1.00;;;;;;4980513;28;20532;-76
2021/12/01 02:01:58;;;;;;;0.50;0.50;;;6.60;1.00;;;;;;4976157;28;20390;-76
2021/12/01 02:04:33;;;;;;;0.90;0.53;;;6.60;1.00;;;;;;4993906;28;20413;-76
2021/12/01 02:07:01;;;;;;;0.60;0.50;;;6.60;1.00;;;;;;4993914;28;20762;-76
2021/12/01 02:09:44;;;;;;;0.70;0.70;;;6.50;1.00;;;;;;4995568;28;20523;-79
2021/12/01 02:12:26;;;;;;;0.60;0.60;;;6.50;1.00;;;;;;4995918;28;20765;-79
2021/12/01 02:14:56;;;;;;;0.50;0.50;;;6.50;1.00;;;;;;4995439;28;20442;-79
2021/12/01 02:17:56;;;;;;;0.50;0.50;;;6.50;1.00;;;;;;4995167;28;20428;-79
2021/12/01 02:20:57;;;;;;;0.70;0.60;;;6.50;1.00;;;;;;4995113;28;20482;-80
2021/12/01 02:23:57;;;;;;;0.40;0.40;;;6.50;1.00;;;;;;4995425;28;20427;-79
2021/12/01 02:26:29;;;;;;;0.40;0.40;;;6.50;1.00;;;;;;4975668;28;20488;-79
2021/12/01 02:28:59;;;;;;;0.40;0.30;;;6.50;1.00;;;;;;4982268;28;20769;-79
2021/12/01 02:31:30;;;;;;;0.50;0.50;;;6.50;1.00;;;;;;4994982;28;20425;-79
2021/12/01 02:34:09;;;;;;;0.50;0.50;;;6.40;1.00;;;;;;4995054;28;20385;-79
2021/12/01 02:37:08;;;;;;;1.70;0.60;;;6.50;1.00;;;;;;4994498;28;20934;-79
2021/12/01 02:39:56;;;;;;;0.50;0.50;;;6.40;1.00;;;;;;4995079;28;20453;-79
2021/12/01 02:42:26;;;;;;;0.50;0.40;;;6.40;1.00;;;;;;4994864;28;20512;-80
2021/12/01 02:44:56;;;;;;;0.50;0.50;;;6.50;1.00;;;;;;4994730;28;20408;-79
2021/12/01 02:47:27;;;;;;;0.40;0.40;;;6.50;1.00;;;;;;4994438;28;20424;-79
2021/12/01 02:50:26;;;;;;;2.20;0.50;;;6.50;1.00;;;;;;4994578;28;20586;-79
2021/12/01 02:52:52;;;;;;;0.30;0.30;;;6.50;1.00;;;;;;4994117;28;20456;-79
2021/12/01 02:55:29;;;;;;;0.60;0.60;;;6.50;1.00;;;;;;4994951;28;20439;-79
2021/12/01 02:57:59;;;;;;;0.60;0.60;;;6.50;1.00;;;;;;4994189;28;20424;-79
2021/12/01 03:00:57;;;;;;;0.40;0.33;;;6.50;1.00;;;;;;4994311;28;20515;-79
2021/12/01 03:03:58;;;;;;;0.60;0.60;;;6.60;1.00;;;;;;4985254;28;20409;-79
2021/12/01 03:06:56;;;;;;;0.63;0.57;;;6.60;1.00;;;;;;4982853;28;20444;-80
2021/12/01 03:09:47;;;;;;;1.73;0.60;;;6.60;1.00;;;;;;4994538;28;20436;-79
2021/12/01 03:12:28;;;;;;;1.27;0.83;;;6.60;1.00;;;;;;4994291;28;20412;-79
2021/12/01 03:14:57;;;;;;;0.77;0.77;;;6.60;1.00;;;;;;4994294;28;20386;-80
2021/12/01 03:17:28;;;;;;;0.70;0.70;;;6.60;1.00;;;;;;4994343;28;20459;-80
2021/12/01 03:19:58;;;;;;;0.60;0.60;;;6.60;1.00;;;;;;4993869;28;20460;-80
2021/12/01 03:22:27;;;;;;;0.90;0.90;;;6.60;1.00;;;;;;4974815;28;20409;-80
2021/12/01 03:25:12;;;;;;;1.03;1.00;;;6.60;1.00;;;;;;4975513;28;20481;-76
2021/12/01 03:27:56;;;;;;;2.07;0.93;;;6.60;1.00;;;;;;4994275;28;20416;-76
2021/12/01 03:30:27;;;;;;;1.00;0.90;;;6.60;1.00;;;;;;4994309;28;20462;-76
2021/12/01 03:36:26;;;;;;;0.90;0.90;;;6.60;1.00;;;;;;4993240;28;20412;-76
2021/12/01 03:39:03;;;;;;;2.30;1.27;;;6.60;1.00;;;;;;4994914;28;20463;-76
2021/12/01 03:41:56;;;;;;;6.00;1.60;;;6.60;1.00;;;;;;4994456;28;20443;-76
2021/12/01 03:44:27;;;;;;;1.57;1.47;;;6.50;1.00;;;;;;4994160;28;20389;-76
2021/12/01 03:47:26;;;;;;;1.63;1.40;;;6.40;1.00;;;;;;4993974;28;20420;-76
2021/12/01 03:49:56;;;;;;;1.60;1.50;;;6.50;1.00;;;;;;4993756;28;20520;-77
2021/12/01 03:52:27;;;;;;;1.30;1.20;;;6.50;1.00;;;;;;4993868;28;20429;-76
2021/12/01 03:54:57;;;;;;;1.30;1.20;;;6.50;1.00;;;;;;4994614;28;20479;-76
2021/12/01 03:57:23;;;;;;;1.80;1.70;;;6.50;1.00;;;;;;4994260;28;20435;-76
2021/12/01 03:59:57;;;;;;;1.60;1.37;;;6.50;1.00;;;;;;4993676;28;20456;-76
2021/12/01 04:02:27;;;;;;;1.60;1.50;;;6.50;1.00;;;;;;4993851;28;20448;-77
2021/12/01 04:04:56;;;;;;;4.83;1.93;;;6.50;1.00;;;;;;4997068;28;20428;-76
2021/12/01 04:07:26;;;;;;;1.73;1.63;;;6.50;1.00;;;;;;4997870;28;20424;-77
2021/12/01 04:10:27;;;;;;;3.20;1.30;;;6.60;1.00;;;;;;4997830;28;20467;-76
2021/12/01 04:12:53;;;;;;;1.57;1.47;;;6.60;1.00;;;;;;4997516;28;20516;-77
2021/12/01 04:15:26;;;;;;;2.00;1.50;;;6.60;1.00;;;;;;4997557;28;20424;-77
2021/12/01 04:17:56;;;;;;;1.50;1.40;;;6.60;1.00;;;;;;4991295;28;20194;-76
2021/12/01 04:20:27;;;;;;;1.50;1.40;;;6.50;1.00;;;;;;4993365;28;20495;-76
2021/12/01 04:22:57;;;;;;;2.27;2.10;;;6.60;1.00;;;;;;4997366;28;20511;-77
2021/12/01 04:25:27;;;;;;;2.07;1.97;;;6.60;1.00;;;;;;4997555;28;20475;-79
2021/12/01 04:28:26;;;;;;;1.80;1.70;;;6.50;1.00;;;;;;4997467;28;20816;-80
2021/12/01 04:30:56;;;;;;;1.90;1.80;;;6.60;1.00;;;;;;4997283;28;20416;-80
2021/12/01 04:33:26;;;;;;;1.93;1.30;;;6.60;1.00;;;;;;4997229;28;20413;-80
2021/12/01 04:35:56;;;;;;;1.40;1.20;;;6.60;1.00;;;;;;4997098;28;20405;-80
2021/12/01 04:38:27;;;;;;;4.33;1.83;;;6.60;1.00;;;;;;4997174;28;20461;-80
2021/12/01 04:40:57;;;;;;;8.73;2.10;;;6.60;1.00;;;;;;4997176;28;20504;-76
2021/12/01 04:43:33;;;;;;;1.80;1.70;;;6.60;1.00;;;;;;4996981;28;20416;-76
2021/12/01 04:45:59;;;;;;;1.93;1.70;;;6.60;1.00;;;;;;4996908;28;20472;-76
2021/12/01 04:48:27;;;;;;;1.97;1.67;;;6.60;1.00;;;;;;4997049;28;20397;-77
2021/12/01 04:50:54;;;;;;;1.60;1.50;;;6.70;1.00;;;;;;4996462;28;20436;-76
2021/12/01 04:53:27;;;;;;;2.77;1.80;;;6.70;1.00;;;;;;4996844;28;20431;-76
2021/12/01 04:55:56;;;;;;;2.40;1.63;;;6.70;1.00;;;;;;4997187;28;20412;-80
2021/12/01 05:01:56;;;;;;;1.47;1.37;;;6.70;1.00;;;;;;4996277;28;21005;-80
2021/12/01 05:04:27;;;;;;;1.90;1.70;;;6.70;1.00;;;;;;4996510;28;20888;-79
2021/12/01 05:06:57;;;;;;;1.83;1.60;;;6.60;1.00;;;;;;4996432;28;20421;-80
2021/12/01 05:09:27;;;;;;;1.60;1.50;;;6.70;1.00;;;;;;4996956;28;20397;-80
2021/12/01 05:11:56;;;;;;;2.33;1.73;;;6.60;1.00;;;;;;4995111;28;20777;-79
2021/12/01 05:14:56;;;;;;;1.90;1.80;;;6.70;1.00;;;;;;4996227;28;20428;-80
2021/12/01 05:17:26;;;;;;;1.03;0.87;;;6.70;1.00;;;;;;4996319;28;20479;-80
2021/12/01 05:19:57;;;;;;;1.43;1.43;;;;;;;;;;4996245;28;20882;-80
2021/12/01 05:22:56;;;;;;;1.63;1.53;;;6.70;1.00;;;;;;4996229;28;20476;-79
2021/12/01 05:25:27;;;;;;;1.70;1.30;;;6.70;1.00;;;;;;4992663;28;20424;-79
2021/12/01 05:27:57;;;;;;;1.27;1.27;;;;;;;;;;4988269;28;20448;-79
2021/12/01 05:30:27;;;;;;;1.63;1.53;;;6.70;1.00;;;;;;4995912;28;20900;-79
2021/12/01 05:33:03;;;;;;;1.87;1.07;;;6.70;1.00;;;;;;4996131;28;20823;-79
2021/12/01 05:35:56;;;;;;;1.17;1.17;;;6.70;1.00;;;;;;4996139;28;20420;-79
2021/12/01 05:38:26;;;;;;;0.93;0.83;;;6.80;1.00;;;;;;4995993;28;20451;-79
2021/12/01 05:40:56;;;;;;;0.90;0.60;;;6.80;1.00;;;;;;4996186;28;20429;-77
2021/12/01 05:43:26;;;;;;;2.43;1.07;;;6.80;1.00;;;;;;4995939;28;20396;-77
2021/12/01 05:45:56;;;;;;;1.50;1.23;;;6.80;1.00;;;;;;4995629;28;20413;-77
2021/12/01 05:48:39;;;;;;;1.00;1.00;;;6.80;1.00;;;;;;4996329;28;20409;-77
2021/12/01 05:51:04;;;;;;;0.87;0.83;;;6.90;1.00;;;;;;4995679;28;20547;-77
2021/12/01 05:53:56;;;;;;;1.13;1.10;;;6.90;1.00;;;;;;4995613;28;20846;-77
2021/12/01 05:56:27;;;;;;;1.23;1.13;;;6.90;1.00;;;;;;4995970;28;20700;-77
2021/12/01 05:58:57;;;;;;;3.27;1.10;;;6.90;1.00;;;;;;4995612;28;20496;-77
2021/12/01 06:01:27;;;;;;;1.47;1.03;;;6.90;1.00;;;;;;4995414;28;20459;-77
2021/12/01 06:04:09;;;;;;;1.20;1.17;;;7.00;1.00;;;;;;4995608;28;20405;-79
2021/12/01 06:06:56;;;;;;;1.60;1.50;;;7.00;1.00;;;;;;4995741;28;20432;-77
2021/12/01 06:09:26;;;;;;;3.80;1.20;;;7.00;1.00;;;;;;4995243;28;20421;-77
2021/12/01 06:11:57;;;;;;;1.73;1.43;;;7.10;1.00;;;;;;4995959;28;20438;-77
2021/12/01 06:14:42;;;;;;;1.43;1.33;;;7.10;1.00;;;;;;4995242;28;20914;-76
2021/12/01 06:17:20;;;;;;;1.87;1.70;;;7.10;1.00;;;;;;4995181;28;20393;-76
2021/12/01 06:19:56;;;;;;;1.43;1.13;;;7.10;1.00;;;;;;4995442;28;20927;-76
2021/12/01 06:22:26;;;;;;;1.17;1.10;;;7.10;1.00;;;;;;4995158;28;20946;-76
2021/12/01 06:25:26;;;;;;;2.17;1.40;;;7.10;1.00;;;;;;4995361;28;20752;-79
2021/12/01 06:27:57;;;;;;;1.47;1.37;;;7.10;1.00;;;;;;4994523;28;20500;-80
2021/12/01 06:30:25;;;;;;;1.37;1.27;;;7.10;1.00;;;;;;4994017;28;20424;-78
2021/12/01 06:32:57;;;;;;;1.70;1.60;;;7.20;1.00;;;;;;4991816;28;20543;-79
2021/12/01 06:35:27;;;;;;;2.70;1.57;;;7.20;1.00;;;;;;4995200;28;20394;-81
2021/12/01 06:38:26;;;;;;;4.13;1.33;;;7.20;1.00;;;;;;4994307;28;20429;-82
2021/12/01 06:40:57;;;;;;;1.40;1.30;;;;;;;;;;4995013;28;20752;-81
2021/12/01 06:43:38;;;;;;;2.50;1.30;;;7.10;1.00;;;;;;4993417;28;20420;-81
2021/12/01 06:49:27;;;;;;;1.10;1.10;;;7.10;1.00;;;;;;4994391;28;20408;-74
2021/12/01 06:51:52;;;;;;;4.00;1.57;;;7.10;1.00;;;;;;4994432;28;20849;-73
2021/12/01 06:54:27;;;;;;;3.53;1.53;;;7.20;1.00;;;;;;4990904;28;20429;-77
2021/12/01 06:56:56;;;;;;;1.80;1.70;;;7.20;1.00;;;;;;4995017;28;20260;-77
2021/12/01 06:59:27;;;;;;;1.37;1.27;;;7.20;1.00;;;;;;4993561;28;20475;-78
2021/12/01 07:01:56;;;;;;;1.10;1.03;;;7.20;1.00;;;;;;4989085;28;20429;-76
2021/12/01 07:04:22;;;;;;;1.20;1.10;;;;;;;;;;4994679;28;20409;-75
2021/12/01 07:06:50;;;;;;;1.53;1.23;;;7.10;1.00;;;;;;4994385;28;20479;-75
2021/12/01 07:09:23;;;;;;;11.23;1.63;;;7.20;1.00;;;;;;4994464;28;20429;-77
2021/12/01 07:11:49;;;;;;;2.27;1.30;;;7.30;1.00;;;;;;4995105;28;20472;-76
2021/12/01 07:14:15;;;;;;;0.73;0.73;;;7.30;1.00;;;;;;4993355;28;20846;-76
2021/12/01 07:16:44;;;;;;;1.50;1.20;;;7.30;1.00;;;;;;4994577;28;20188;-75
2021/12/01 07:19:38;;;;;;;1.23;1.13;;;7.30;1.00;;;;;;4994161;28;20522;-75
2021/12/01 07:22:04;;;;;;;1.63;1.10;;;7.30;1.00;;;;;;4998095;28;20431;-75
2021/12/01 07:24:39;;;;;;;1.53;1.30;;;7.30;1.00;;;;;;4981397;28;20406;-74
2021/12/01 07:27:09;;;;;;;1.40;1.30;;;7.40;1.00;;;;;;4994207;28;20508;-76
2021/12/01 07:29:50;;;;;;;0.80;0.80;;;7.40;1.00;;;;;;4994254;28;20416;-76
2021/12/01 07:32:21;;;;;;;0.60;0.60;;;7.40;1.00;;;;;;4989921;28;20428;-76
2021/12/01 07:34:50;;;;;;;1.03;1.03;;;7.40;1.00;;;;;;4992467;28;20430;-75
2021/12/01 07:37:18;;;;;;;0.80;0.80;;;7.40;1.00;;;;;;4993872;28;20911;-75
2021/12/01 07:40:08;;;;;;;1.27;0.90;;;7.40;1.00;;;;;;4997558;28;20519;-75
2021/12/01 07:42:51;;;;;;;0.90;0.90;;;7.50;1.00;;;;;;4998314;28;20445;-75
2021/12/01 07:45:20;;;;;;;1.33;0.73;;;7.50;1.00;;;;;;4998186;28;20822;-75
2021/12/01 07:48:38;;;;;;;0.93;0.93;;;7.50;1.00;;;;;;4997806;28;20413;-78
2021/12/01 07:51:38;;;;;;;1.20;1.10;;;7.50;1.00;;;;;;4997452;28;20416;-78
2021/12/01 07:57:34;;;;;;;0.70;0.70;;;7.60;1.00;;;;;;4981023;28;20483;-77
2021/12/01 08:03:50;;;;;;;0.97;0.93;;;7.60;1.00;;;;;;4996609;28;20546;-76
2021/12/01 08:09:47;;;;;;;4.00;0.60;;;7.60;1.00;;;;;;4978183;28;20413;-77
2021/12/01 08:13:09;;;;;;;1.00;0.80;;;7.60;1.00;;;;;;4990361;28;20500;-79
2021/12/01 08:15:56;;;;;;;0.80;0.80;;;7.60;1.00;;;;;;4997283;28;20437;-80
2021/12/01 08:18:44;;;;;;;1.63;1.07;;;7.60;1.00;;;;;;4994704;28;20468;-79
2021/12/01 08:22:03;;;;;;;0.70;0.70;;;7.60;1.00;;;;;;4997302;28;20459;-79
2021/12/01 08:24:32;;;;;;;0.80;0.80;;;7.60;1.00;;;;;;4991463;28;20460;-79
2021/12/01 08:27:03;;;;;;;0.70;0.70;;;7.60;1.00;;;;;;4996216;28;20433;-78
2021/12/01 08:29:29;;;;;;;0.60;0.60;;;7.60;1.00;;;;;;4996705;28;20425;-79
2021/12/01 08:31:55;;;;;;;0.83;0.83;;;7.60;1.00;;;;;;4995654;28;20970;-79
2021/12/01 08:41:44;;;;;;;0.63;0.60;;;7.60;1.00;;;;;;4996788;28;20459;-79
2021/12/01 08:44:44;;;;;;;0.90;0.70;;;7.60;1.00;;;;;;4996677;28;20507;-78
2021/12/01 08:47:11;;;;;;;0.57;0.57;;;7.60;1.00;;;;;;4988080;28;20487;-78
2021/12/01 08:52:59;;;;;;;3.37;1.00;;;7.50;1.00;;;;;;4992859;28;20440;-78
2021/12/01 08:55:25;;;;;;;1.03;0.70;;;7.50;1.00;;;;;;4995951;28;20433;-79
2021/12/01 08:57:56;;;;;;;1.00;0.90;;;7.50;1.00;;;;;;4992642;28;20429;-78
2021/12/01 09:00:57;;;;;;;0.60;0.60;;;7.50;1.00;;;;;;4991923;28;20434;-79
2021/12/01 09:03:56;;;;;;;4.93;0.70;;;7.50;1.00;;;;;;4992144;28;20416;-78
2021/12/01 09:06:22;;;;;;;0.90;0.90;;;;;;;;;;4981374;28;20417;-78
2021/12/01 09:08:48;;;;;;;0.73;0.70;;;;;;;;;;4994431;28;20923;-78
2021/12/01 09:11:14;;;;;;;0.90;0.90;;;;;;;;;;4993861;28;20436;-79
2021/12/01 09:13:40;;;;;;;0.80;0.80;;;7.60;1.00;;;;;;4995401;28;20428;-79
2021/12/01 09:16:06;;;;;;;0.60;0.60;;;;;;;;;;4995219;28;20923;-79
2021/12/01 09:18:33;;;;;;;2.60;0.70;;;7.50;1.00;;;;;;4993155;28;20571;-79
2021/12/01 09:21:01;;;;;;;0.70;0.70;;;7.50;1.00;;;;;;4994790;28;20455;-79
2021/12/01 09:23:27;;;;;;;0.60;0.60;;;;;;;;;;4995063;28;20431;-79
2021/12/01 09:25:53;;;;;;;0.70;0.60;;;;;;;;;;4995276;28;20478;-79
2021/12/01 09:28:22;;;;;;;0.80;0.80;;;7.50;1.00;;;;;;4995580;28;20785;-77
2021/12/01 09:30:49;;;;;;;1.60;0.60;;;;;;;;;;4994803;28;20502;-77
2021/12/01 09:33:15;;;;;;;0.60;0.60;;;;;;;;;;4994284;28;20420;-76
2021/12/01 09:35:41;;;;;;;0.60;0.60;;;7.30;1.00;;;;;;4993965;28;20904;-77
2021/12/01 09:38:09;;;;;;;0.87;0.70;;;7.60;1.00;;;;;;4991749;28;20432;-77
2021/12/01 09:40:35;;;;;;;0.70;0.70;;;7.70;1.00;;;;;;4993764;28;20436;-77
2021/12/01 09:43:06;;;;;;;1.07;0.50;;;7.70;1.00;;;;;;4995122;28;20421;-77
2021/12/01 09:45:32;;;;;;;0.50;0.50;;;;;;;;;;4994833;28;20918;-76
2021/12/01 09:47:57;;;;;;;0.60;0.60;;;7.80;1.00;;;;;;4994620;28;20409;-76
2021/12/01 09:50:23;;;;;;;0.63;0.60;;;7.70;1.00;;;;;;4994775;28;20416;-77
2021/12/01 09:52:50;;;;;;;0.53;0.53;;;7.80;1.00;;;;;;4993563;28;20232;-77
2021/12/01 09:55:17;;;;;;;5.60;0.60;;;10.00;1.00;;;;;;4991648;28;20178;-76
2021/12/01 09:58:00;;;;;;;0.60;0.60;;;8.00;1.00;;;;;;4988689;28;20428;-76
2021/12/01 10:00:26;;;;;;;1.00;0.73;;;8.00;1.00;;;;;;4981824;28;20433;-79
2021/12/01 10:02:53;;;;;;;1.07;0.70;;;9.10;1.00;;;;;;4993667;28;20432;-79
2021/12/01 10:06:03;;;;;;;0.90;0.57;;;8.10;1.00;;;;;;4994101;28;20436;-79
2021/12/01 10:08:35;;;;;;;0.50;0.50;;;8.10;1.00;;;;;;4981673;28;20819;-78
2021/12/01 10:11:25;;;;;;;0.77;0.77;;;8.20;1.00;;;;;;4994033;28;20519;-79
2021/12/01 10:13:55;;;;;;;0.50;0.50;;;8.20;1.00;;;;;;4994798;28;20432;-78
2021/12/01 10:16:22;;;;;;;1.73;0.60;;;8.10;1.00;;;;;;4994110;28;20428;-78
2021/12/01 10:18:50;;;;;;;0.57;0.57;;;8.20;1.00;;;;;;4994500;28;20425;-79
2021/12/01 10:21:24;;;;;;;0.60;0.60;;;8.20;1.00;;;;;;4991971;28;20947;-80
2021/12/01 10:23:56;;;;;;;0.60;0.60;;;8.20;1.00;;;;;;4994140;28;20932;-79
2021/12/01 10:26:31;;;;;;;0.53;0.53;;;8.70;1.00;;;;;;4993954;28;20967;-79
2021/12/01 10:29:05;;;;;;;0.97;0.60;;;8.30;1.00;;;;;;4994010;28;20460;-79
2021/12/01 10:31:53;;;;;;;1.10;0.60;;;8.40;1.00;;;;;;4983571;28;20527;-78
2021/12/01 10:34:23;;;;;;;2.40;0.70;;;8.40;1.00;;;;;;4989200;28;20424;-79
2021/12/01 10:36:52;;;;;;;0.50;0.50;;;8.50;1.00;;;;;;4994210;28;20421;-79
2021/12/01 10:39:17;;;;;;;0.50;0.50;;;8.50;1.00;;;;;;4993451;28;20432;-79
2021/12/01 10:41:43;;;;;;;0.70;0.50;;;8.40;1.00;;;;;;4993646;28;20425;-79
2021/12/01 10:44:18;;;;;;;0.70;0.50;;;8.50;1.00;;;;;;4994064;28;20413;-79
2021/12/01 10:46:43;;;;;;;0.80;0.60;;;8.50;1.00;;;;;;4993434;28;20264;-82
2021/12/01 10:49:09;;;;;;;0.57;0.57;;;8.50;1.00;;;;;;4993883;28;20520;-84
2021/12/01 10:51:38;;;;;;;0.50;0.50;;;8.50;1.00;;;;;;4992910;28;20192;-83
2021/12/01 10:54:12;;;;;;;0.50;0.50;;;8.50;1.00;;;;;;4993277;28;20216;-77
2021/12/01 10:56:38;;;;;;;0.50;0.50;;;;;;;;;;4989995;28;20479;-79
2021/12/01 10:59:15;;;;;;;2.40;0.70;;;8.60;1.00;;;;;;4997506;28;20428;-76
2021/12/01 11:01:41;;;;;;;0.50;0.50;;;8.60;1.00;;;;;;4995596;28;20436;-76
2021/12/01 11:04:07;;;;;;;0.97;0.67;;;8.60;1.00;;;;;;4992068;28;20420;-75
2021/12/01 11:06:40;;;;;;;0.50;0.50;;;8.60;1.00;;;;;;4992454;28;20196;-75
2021/12/01 11:09:07;;;;;;;0.73;0.50;;;;;;;;;;4992411;28;20543;-75
2021/12/01 11:11:48;;;;;;;0.60;0.60;;;8.60;1.00;;;;;;4993296;28;20428;-76
2021/12/01 11:14:16;;;;;;;0.60;0.60;;;8.60;1.00;;;;;;4992196;28;20959;-76
2021/12/01 11:16:43;;;;;;;1.10;0.80;;;8.60;1.00;;;;;;4995928;28;20428;-76
2021/12/01 11:19:10;;;;;;;1.10;0.70;;;8.60;1.00;;;;;;4992983;28;20919;-75
2021/12/01 11:21:37;;;;;;;0.90;0.60;;;8.70;1.00;;;;;;4992935;28;20425;-76
2021/12/01 11:24:12;;;;;;;0.67;0.67;;;8.70;1.00;;;;;;4993425;28;20880;-69
2021/12/01 11:26:43;;;;;;;0.70;0.70;;;8.70;1.00;;;;;;4987589;28;20439;-74
2021/12/01 11:29:12;;;;;;;0.43;0.40;;;8.70;1.00;;;;;;4992710;28;20456;-80
2021/12/01 11:31:39;;;;;;;0.50;0.50;;;8.70;1.00;;;;;;4992706;28;20440;-80
2021/12/01 11:34:11;;;;;;;0.60;0.60;;;8.80;1.00;;;;;;4992696;28;20424;-79
2021/12/01 11:36:40;;;;;;;0.60;0.60;;;8.80;1.00;;;;;;4993186;28;20825;-80
2021/12/01 11:39:19;;;;;;;0.50;0.50;;;8.90;1.00;;;;;;4989905;28;20443;-80
2021/12/01 11:41:46;;;;;;;0.50;0.50;;;8.90;1.00;;;;;;4990806;28;20432;-81
2021/12/01 11:44:14;;;;;;;0.50;0.50;;;8.90;1.00;;;;;;4992851;28;20504;-80
2021/12/01 11:46:40;;;;;;;0.47;0.47;;;9.00;1.00;;;;;;4992345;28;20424;-80
2021/12/01 11:49:12;;;;;;;0.60;0.50;;;9.00;1.00;;;;;;4992270;28;20456;-81
2021/12/01 11:51:57;;;;;;;0.87;0.40;;;9.10;1.00;;;;;;4991416;28;20773;-80
2021/12/01 11:54:24;;;;;;;0.50;0.40;;;9.10;1.00;;;;;;4985631;28;20933;-79
2021/12/01 11:57:06;;;;;;;0.50;0.50;;;9.20;1.00;;;;;;4993631;28;20472;-79
2021/12/01 11:59:43;;;;;;;0.43;0.43;;;9.30;1.00;;;;;;4991995;28;20503;-75
2021/12/01 12:02:17;;;;;;;0.97;0.40;;;9.40;1.00;;;;;;4981629;28;20828;-75
2021/12/01 12:04:49;;;;;;;0.40;0.40;;;9.40;1.00;;;;;;4992867;28;20494;-77
2021/12/01 12:07:26;;;;;;;0.40;0.30;;;9.50;1.00;;;;;;4992219;28;20435;-74
2021/12/01 12:10:07;;;;;;;0.50;0.30;;;9.60;1.00;;;;;;4992383;28;20460;-76
2021/12/01 12:12:57;;;;;;;0.40;0.40;;;9.50;1.00;;;;;;4984580;28;20750;-75
2021/12/01 12:15:41;;;;;;;0.40;0.40;;;9.60;1.00;;;;;;4980901;28;20480;-75
2021/12/01 12:18:09;;;;;;;1.07;0.40;;;9.60;1.00;;;;;;4992885;28;20933;-75
2021/12/01 12:20:53;;;;;;;0.40;0.40;;;9.70;1.00;;;;;;4992507;28;20425;-75
2021/12/01 12:23:31;;;;;;;0.63;0.40;;;9.70;1.00;;;;;;4992079;28;20425;-75
2021/12/01 12:25:57;;;;;;;0.70;0.60;;;9.70;1.00;;;;;;4995729;28;20427;-75
2021/12/01 12:28:30;;;;;;;0.30;0.30;;;9.70;1.00;;;;;;4996239;28;20452;-76
2021/12/01 12:31:07;;;;;;;0.40;0.33;;;9.70;1.00;;;;;;4996475;28;20915;-77
2021/12/01 12:33:49;;;;;;;0.40;0.40;;;9.60;1.00;;;;;;4995828;28;20451;-78
2021/12/01 12:39:44;;;;;;;0.40;0.40;;;9.60;1.00;;;;;;4994528;28;20427;-80
2021/12/01 12:46:09;;;;;;;0.40;0.30;;;9.60;1.00;;;;;;4997863;28;20400;-78
2021/12/01 12:49:08;;;;;;;0.50;0.40;;;;;;;;;;4996675;28;20462;-79
2021/12/01 12:52:20;;;;;;;0.40;0.40;;;9.60;1.00;;;;;;4996490;28;20405;-77
2021/12/01 12:55:01;;;;;;;2.43;0.43;;;9.60;1.00;;;;;;4995327;28;20437;-79
2021/12/01 12:58:15;;;;;;;0.40;0.40;;;9.70;1.00;;;;;;5004910;28;20436;-79
2021/12/01 13:00:53;;;;;;;0.50;0.50;;;9.70;1.00;;;;;;4988303;28;20463;-88
2021/12/01 13:03:27;;;;;;;0.40;0.40;;;9.60;1.00;;;;;;4992854;28;20421;-75
2021/12/01 13:06:06;;;;;;;0.57;0.53;;;;;;;;;;4992034;28;20943;-78
2021/12/01 13:08:43;;;;;;;0.40;0.40;;;9.60;1.00;;;;;;4994635;28;20955;-78
2021/12/01 13:11:12;;;;;;;0.43;0.43;;;9.70;1.00;;;;;;4995728;28;20424;-77
2021/12/01 13:13:39;;;;;;;0.40;0.40;;;9.70;1.00;;;;;;4995499;28;20420;-77
2021/12/01 13:16:08;;;;;;;0.60;0.40;;;9.80;1.00;;;;;;4995265;28;20999;-75
2021/12/01 13:18:37;;;;;;;0.40;0.40;;;9.70;1.00;;;;;;4986504;28;20887;-76
2021/12/01 13:21:09;;;;;;;0.40;0.40;;;9.70;1.00;;;;;;4995392;28;20448;-76
2021/12/01 13:23:36;;;;;;;0.40;0.37;;;9.70;1.00;;;;;;4995371;28;20463;-87
2021/12/01 13:26:16;;;;;;;0.40;0.40;;;9.70;1.00;;;;;;4996232;28;20425;-86
2021/12/01 13:28:55;;;;;;;0.50;0.40;;;9.70;1.00;;;;;;4987496;28;20442;-75
2021/12/01 13:31:33;;;;;;;0.40;0.40;;;9.60;1.00;;;;;;4982954;28;20471;-81
2021/12/01 13:34:13;;;;;;;0.40;0.40;;;9.60;1.00;;;;;;4990186;28;20428;-75
2021/12/01 13:36:59;;;;;;;0.40;0.40;;;9.60;1.00;;;;;;4993258;28;20437;-76
2021/12/01 13:39:28;;;;;;;0.50;0.50;;;9.60;1.00;;;;;;4987542;28;20975;-75
2021/12/01 13:42:08;;;;;;;2.20;0.50;;;9.60;1.00;;;;;;4995043;28;20421;-75
2021/12/01 13:44:38;;;;;;;0.80;0.53;;;9.60;1.00;;;;;;4994611;28;20766;-75
2021/12/01 13:47:06;;;;;;;2.40;0.43;;;9.60;1.00;;;;;;4994496;28;20425;-76
2021/12/01 13:49:59;;;;;;;0.57;0.57;;;9.60;1.00;;;;;;4994639;28;20440;-75
2021/12/01 13:52:39;;;;;;;0.50;0.50;;;9.50;1.00;;;;;;4957775;28;20467;-79
2021/12/01 13:55:17;;;;;;;0.40;0.40;;;9.50;1.00;;;;;;4957483;28;20446;-76
2021/12/01 13:57:44;;;;;;;0.40;0.40;;;9.60;1.00;;;;;;4954631;28;20416;-78
2021/12/01 14:00:10;;;;;;;0.87;0.60;;;9.50;1.00;;;;;;4952805;29;20533;-78
2021/12/01 14:02:37;;;;;;;0.50;0.50;;;9.60;1.00;;;;;;4954269;28;20521;-78
2021/12/01 14:05:04;;;;;;;0.50;0.50;;;9.60;1.00;;;;;;4962856;28;20439;-75
2021/12/01 14:07:48;;;;;;;0.50;0.50;;;9.60;1.00;;;;;;4958364;28;20995;-78
2021/12/01 14:10:47;;;;;;;0.73;0.73;;;9.60;1.00;;;;;;4958362;28;20914;-76
2021/12/01 14:13:13;;;;;;;0.50;0.50;;;9.60;1.00;;;;;;4943051;29;20445;-78
2021/12/01 14:15:41;;;;;;;0.50;0.50;;;9.60;1.00;;;;;;4934204;29;20806;-79
2021/12/01 14:18:09;;;;;;;0.53;0.53;;;9.60;1.00;;;;;;4952119;28;20453;-79
2021/12/01 14:20:35;;;;;;;0.50;0.50;;;9.60;1.00;;;;;;4953014;28;20447;-79
2021/12/01 14:23:33;;;;;;;0.53;0.50;;;9.60;1.00;;;;;;4953936;28;20450;-80
2021/12/01 14:29:38;;;;;;;0.70;0.50;;;9.60;1.00;;;;;;4970154;28;20436;-79
2021/12/01 14:32:11;;;;;;;0.40;0.40;;;9.60;1.00;;;;;;4992320;28;20433;-78
2021/12/01 14:35:02;;;;;;;0.60;0.50;;;9.60;1.00;;;;;;4986598;28;20841;-78
2021/12/01 14:40:54;;;;;;;0.40;0.40;;;9.60;1.00;;;;;;4993724;28;20768;-78
2021/12/01 14:43:31;;;;;;;1.13;0.70;;;9.60;1.00;;;;;;4994299;28;20944;-78
2021/12/01 14:46:03;;;;;;;0.40;0.40;;;9.50;1.00;;;;;;4993934;28;20442;-78
2021/12/01 14:48:34;;;;;;;0.50;0.50;;;9.50;1.00;;;;;;4992858;28;20413;-79
2021/12/01 14:51:00;;;;;;;0.53;0.53;;;9.60;1.00;;;;;;4993322;28;20854;-79
2021/12/01 14:53:26;;;;;;;0.60;0.60;;;;;;;;;;4993280;28;20531;-80
2021/12/01 14:55:52;;;;;;;0.50;0.50;;;;;;;;;;4993652;28;20491;-80
2021/12/01 14:58:19;;;;;;;0.60;0.60;;;9.50;1.00;;;;;;4993571;28;20424;-80
2021/12/01 15:00:59;;;;;;;0.40;0.40;;;9.50;1.00;;;;;;4993699;28;20429;-78